Archer, Idaho
Current Conditions -  °F | °C
As of 12:53 PM on Saturday 25 Oct 2014 (Local Time) from KRXE Reporting Station
Clear Clear  
Wind Chill: 70°   Ceiling: Unl
Heat Index: 70°   Visibility: 10mi
Dew Point: 32°   Wind: 15mph
Humidity: 25%   Direction: 210°SSW
Pressure: 29.99"   Gusts: 23mph
Location:  43.7568°N, 111.624°W
Report Text: KRXE 251853Z AUTO 21013G20KT 10SM CLR 21/00 A2999 RMK AO2 SLP132 T02110000
Loading
Personal Weather Stations






























Interactive Weather Map New forecast layout! Learn more

10-Day Weather Forecast

Advertisements
Track Severe Weather on mobile